Time;durP1;ratioP1;P1;durP2;ratioP2;P2;SDS_P1;SDS_P2;PMS_P1;PMS_P2;Temp;Humidity;BMP_temperature;BMP_pressure;BME280_temperature;BME280_humidity;BME280_pressure;Samples;Min_cycle;Max_cycle;Signal;HPM_P1;HPM_P2
2021/04/28 00:00:33;;;;;;;6.72;4.95;;;8.20;60.30;;;;;;2078943;28;20037;-68
2021/04/28 00:01:34;;;;;;;10.18;6.10;;;8.20;60.30;;;;;;2078939;28;20048;-68
2021/04/28 00:02:36;;;;;;;8.45;4.88;;;8.30;60.80;;;;;;2078623;28;20057;-67
2021/04/28 00:03:36;;;;;;;6.90;6.20;;;8.20;60.20;;;;;;2079248;28;20060;-68
2021/04/28 00:04:37;;;;;;;6.75;5.60;;;8.20;61.50;;;;;;2079086;28;20528;-68
2021/04/28 00:05:38;;;;;;;9.07;6.68;;;8.10;61.80;;;;;;2079292;28;20132;-68
2021/04/28 00:06:38;;;;;;;5.28;4.78;;;8.20;62.30;;;;;;2079145;28;20018;-68
2021/04/28 00:07:39;;;;;;;6.05;4.32;;;8.10;61.20;;;;;;2078945;28;20087;-68
2021/04/28 00:08:39;;;;;;;6.72;5.90;;;8.10;60.20;;;;;;2081746;28;20053;-68
2021/04/28 00:09:40;;;;;;;6.63;5.72;;;8.10;60.90;;;;;;2079067;28;20469;-68
2021/04/28 00:10:41;;;;;;;6.45;5.55;;;8.10;61.40;;;;;;2079131;28;20036;-67
2021/04/28 00:11:42;;;;;;;8.02;5.70;;;8.10;61.90;;;;;;2078944;28;20032;-67
2021/04/28 00:12:43;;;;;;;7.65;5.68;;;8.10;62.50;;;;;;2078726;28;21100;-68
2021/04/28 00:13:43;;;;;;;8.13;6.20;;;8.00;62.00;;;;;;2079003;28;20088;-68
2021/04/28 00:14:44;;;;;;;6.10;5.00;;;8.00;63.30;;;;;;2079192;28;20030;-68
2021/04/28 00:15:47;;;;;;;5.60;5.07;;;8.00;62.40;;;;;;2078785;28;20028;-67
2021/04/28 00:16:48;;;;;;;6.45;5.43;;;8.00;62.50;;;;;;2079401;28;20721;-68
2021/04/28 00:17:50;;;;;;;5.90;5.30;;;7.90;62.60;;;;;;2079070;28;20029;-67
2021/04/28 00:18:51;;;;;;;6.55;5.47;;;7.90;61.90;;;;;;2078941;28;20040;-67
2021/04/28 00:19:52;;;;;;;5.43;4.90;;;7.90;63.80;;;;;;2078891;28;20029;-67
2021/04/28 00:20:53;;;;;;;6.25;5.57;;;7.90;63.10;;;;;;2079079;28;20033;-68
2021/04/28 00:21:55;;;;;;;5.95;5.35;;;7.90;62.90;;;;;;2078876;28;20045;-68
2021/04/28 00:22:55;;;;;;;9.63;5.43;;;7.90;63.30;;;;;;2078462;28;20071;-67
2021/04/28 00:23:57;;;;;;;8.20;5.63;;;7.90;62.90;;;;;;2079298;28;20549;-67
2021/04/28 00:24:57;;;;;;;5.20;4.70;;;7.90;63.20;;;;;;2086872;28;20041;-67
2021/04/28 00:25:58;;;;;;;6.32;5.03;;;7.90;62.40;;;;;;2087630;28;20021;-68
2021/04/28 00:26:58;;;;;;;5.35;4.85;;;7.80;63.20;;;;;;2087854;28;20033;-68
2021/04/28 00:27:59;;;;;;;6.85;5.30;;;7.80;63.40;;;;;;2087296;28;20028;-67
2021/04/28 00:29:00;;;;;;;9.65;5.70;;;7.80;63.30;;;;;;2087276;28;20036;-68
2021/04/28 00:30:02;;;;;;;6.32;5.63;;;7.80;64.80;;;;;;2074030;28;20029;-68
2021/04/28 00:31:03;;;;;;;6.68;5.65;;;7.80;64.80;;;;;;2078408;28;20488;-68
2021/04/28 00:32:04;;;;;;;5.60;4.72;;;7.80;63.70;;;;;;2078563;28;20372;-67
2021/04/28 00:33:05;;;;;;;6.18;5.57;;;7.70;62.50;;;;;;2078399;28;20038;-67
2021/04/28 00:34:06;;;;;;;5.55;5.05;;;7.70;64.30;;;;;;2083039;28;20028;-67
2021/04/28 00:35:12;;;;;;;7.25;6.32;;;7.70;64.40;;;;;;2080160;28;20647;-67
2021/04/28 00:36:13;;;;;;;8.07;5.30;;;7.70;65.80;;;;;;2078912;28;20411;-67
2021/04/28 00:37:13;;;;;;;6.18;4.93;;;7.70;65.30;;;;;;2079050;28;20026;-67
2021/04/28 00:38:14;;;;;;;5.82;5.13;;;7.70;64.30;;;;;;2078947;28;20040;-68
2021/04/28 00:39:14;;;;;;;6.60;5.25;;;7.70;64.10;;;;;;2079083;28;20021;-67
2021/04/28 00:40:23;;;;;;;7.70;5.28;;;7.70;64.60;;;;;;2079062;28;20087;-68
2021/04/28 00:41:24;;;;;;;7.05;5.05;;;7.60;64.90;;;;;;2079041;28;20025;-67
2021/04/28 00:42:25;;;;;;;6.90;5.10;;;7.60;65.10;;;;;;2078101;28;20061;-68
2021/04/28 00:43:26;;;;;;;6.22;5.22;;;7.60;65.50;;;;;;2079043;28;20067;-67
2021/04/28 00:44:27;;;;;;;9.00;5.38;;;7.60;64.70;;;;;;2079072;28;20021;-68
2021/04/28 00:45:28;;;;;;;8.50;5.18;;;7.60;65.40;;;;;;2079025;28;20021;-68
2021/04/28 00:46:29;;;;;;;5.95;5.43;;;7.60;65.30;;;;;;2078914;28;20515;-67
2021/04/28 00:47:30;;;;;;;8.73;5.45;;;7.60;66.30;;;;;;2078960;28;20055;-67
2021/04/28 00:48:31;;;;;;;6.15;5.55;;;7.60;66.00;;;;;;2079287;28;20375;-67
2021/04/28 00:49:31;;;;;;;5.43;4.88;;;7.50;65.80;;;;;;2079836;28;20022;-68
2021/04/28 00:50:35;;;;;;;5.97;4.72;;;7.60;65.00;;;;;;2085108;28;20025;-67
2021/04/28 00:51:35;;;;;;;5.70;4.93;;;7.50;66.00;;;;;;2087557;28;20021;-67
2021/04/28 00:52:36;;;;;;;6.18;5.63;;;7.50;64.80;;;;;;2082009;28;20072;-67
2021/04/28 00:53:37;;;;;;;7.65;5.72;;;7.50;65.70;;;;;;2079712;28;20034;-67
2021/04/28 00:54:37;;;;;;;7.05;5.70;;;7.50;66.40;;;;;;2079662;28;20029;-67
2021/04/28 00:55:38;;;;;;;5.63;5.18;;;7.50;66.90;;;;;;2086485;28;20057;-68
2021/04/28 00:56:39;;;;;;;8.05;5.70;;;7.50;65.90;;;;;;2085822;28;20546;-67
2021/04/28 00:57:39;;;;;;;8.00;5.65;;;7.40;66.10;;;;;;2079744;28;20408;-67
2021/04/28 00:58:40;;;;;;;9.52;5.60;;;7.40;65.80;;;;;;2079866;28;20029;-67
2021/04/28 00:59:41;;;;;;;6.50;5.85;;;7.40;66.10;;;;;;2079770;28;20021;-67
2021/04/28 01:00:43;;;;;;;7.30;5.97;;;7.40;67.10;;;;;;2079952;28;20083;-67
2021/04/28 01:01:43;;;;;;;6.68;5.93;;;7.40;66.90;;;;;;2079236;28;20053;-68
2021/04/28 01:02:44;;;;;;;6.97;6.00;;;7.40;67.90;;;;;;2079094;28;20025;-67
2021/04/28 01:03:48;;;;;;;7.22;6.53;;;7.40;68.10;;;;;;2079668;28;20099;-67
2021/04/28 01:04:49;;;;;;;7.95;7.25;;;7.40;69.10;;;;;;2079364;28;20080;-68
2021/04/28 01:05:52;;;;;;;8.98;5.72;;;7.40;69.50;;;;;;2079844;28;20057;-67
2021/04/28 01:06:54;;;;;;;6.93;5.57;;;7.30;69.00;;;;;;2084596;28;20025;-68
2021/04/28 01:07:55;;;;;;;6.47;5.50;;;7.30;68.50;;;;;;2079425;28;20049;-68
2021/04/28 01:08:57;;;;;;;6.82;5.72;;;7.30;68.60;;;;;;2079393;28;20025;-68
2021/04/28 01:09:58;;;;;;;10.50;6.05;;;7.30;69.10;;;;;;2084118;28;20060;-68
2021/04/28 01:10:59;;;;;;;6.30;5.70;;;7.30;70.10;;;;;;2087919;28;20016;-67
2021/04/28 01:12:02;;;;;;;8.60;6.25;;;7.30;69.60;;;;;;2087855;28;20029;-68
2021/04/28 01:13:05;;;;;;;7.00;6.30;;;7.30;71.30;;;;;;2087185;28;20033;-68
2021/04/28 01:14:05;;;;;;;11.90;5.95;;;7.30;71.60;;;;;;2087635;28;20040;-67
2021/04/28 01:15:10;;;;;;;7.15;5.80;;;7.20;70.10;;;;;;2087182;28;20103;-67
2021/04/28 01:16:10;;;;;;;9.13;5.47;;;7.20;70.60;;;;;;2087188;28;20021;-67
2021/04/28 01:17:11;;;;;;;6.88;6.22;;;7.20;70.90;;;;;;2087799;28;20041;-67
2021/04/28 01:18:12;;;;;;;8.60;5.97;;;7.20;72.00;;;;;;2087634;28;20033;-67
2021/04/28 01:19:13;;;;;;;5.90;5.32;;;7.20;71.40;;;;;;2087908;28;20025;-67
2021/04/28 01:20:16;;;;;;;5.30;4.80;;;7.20;70.00;;;;;;2086755;28;20017;-67
2021/04/28 01:21:16;;;;;;;7.25;6.13;;;7.20;68.70;;;;;;2085632;28;20057;-67
2021/04/28 01:22:19;;;;;;;8.20;6.22;;;7.20;70.10;;;;;;2079046;28;20021;-67
2021/04/28 01:23:21;;;;;;;5.57;4.97;;;7.20;70.90;;;;;;2079621;28;20025;-68
2021/04/28 01:24:22;;;;;;;6.63;6.07;;;7.10;70.00;;;;;;2079352;28;20036;-67
2021/04/28 01:25:25;;;;;;;7.10;6.38;;;7.10;71.10;;;;;;2079415;28;20025;-68
2021/04/28 01:26:28;;;;;;;10.95;5.78;;;7.10;72.10;;;;;;2079367;28;20473;-67
2021/04/28 01:27:30;;;;;;;6.18;5.57;;;7.10;71.10;;;;;;2079003;28;20088;-67
2021/04/28 01:28:31;;;;;;;10.23;6.13;;;7.10;70.90;;;;;;2078674;28;20081;-67
2021/04/28 01:29:34;;;;;;;6.25;5.65;;;7.10;72.50;;;;;;2076593;28;20029;-68
2021/04/28 01:30:53;;;;;;;7.28;5.95;;;7.00;72.00;;;;;;2079165;28;20048;-67
2021/04/28 01:31:57;;;;;;;5.95;5.43;;;7.00;72.80;;;;;;2080705;28;20053;-67
2021/04/28 01:32:58;;;;;;;8.27;6.70;;;7.00;73.00;;;;;;2080646;28;20112;-67
2021/04/28 01:34:01;;;;;;;6.50;5.82;;;6.90;73.40;;;;;;2080935;28;20034;-67
2021/04/28 01:35:02;;;;;;;6.72;6.03;;;6.90;73.80;;;;;;2080587;28;20018;-68
2021/04/28 01:36:07;;;;;;;5.68;5.05;;;6.90;72.90;;;;;;2080769;28;20022;-67
2021/04/28 01:37:08;;;;;;;7.85;5.93;;;6.90;73.40;;;;;;2082212;28;20056;-68
2021/04/28 01:38:09;;;;;;;7.47;6.45;;;6.90;72.90;;;;;;2081058;28;20527;-68
2021/04/28 01:39:14;;;;;;;7.40;5.80;;;6.90;74.20;;;;;;2080807;28;20461;-67
2021/04/28 01:40:18;;;;;;;8.05;5.55;;;6.90;74.00;;;;;;2080621;28;20028;-67
2021/04/28 01:41:19;;;;;;;8.45;6.63;;;6.90;74.60;;;;;;2084262;28;20029;-67
2021/04/28 01:42:20;;;;;;;8.68;5.68;;;6.80;74.80;;;;;;2080256;28;20025;-68
2021/04/28 01:43:22;;;;;;;6.25;5.45;;;6.80;74.40;;;;;;2080794;28;20038;-68
2021/04/28 01:44:23;;;;;;;8.80;7.22;;;6.80;73.30;;;;;;2080254;28;20029;-67
2021/04/28 01:45:24;;;;;;;8.23;7.38;;;6.80;75.50;;;;;;2080837;28;20029;-68
2021/04/28 01:46:26;;;;;;;6.07;4.95;;;6.80;76.60;;;;;;2080862;28;20024;-67
2021/04/28 01:47:28;;;;;;;9.48;6.68;;;6.80;73.90;;;;;;2080528;28;20025;-68
2021/04/28 01:48:29;;;;;;;6.60;5.90;;;6.80;74.70;;;;;;2080871;28;20052;-68
2021/04/28 01:49:31;;;;;;;7.38;6.38;;;6.70;73.40;;;;;;2080665;28;20548;-67
2021/04/28 01:50:33;;;;;;;8.07;5.88;;;6.70;74.80;;;;;;2080457;28;20096;-67
2021/04/28 01:51:35;;;;;;;10.07;6.03;;;6.70;73.90;;;;;;2080748;28;20113;-68
2021/04/28 01:52:36;;;;;;;6.40;5.80;;;6.70;74.10;;;;;;2080160;28;20030;-67
2021/04/28 01:53:38;;;;;;;8.02;6.40;;;6.70;74.60;;;;;;2080915;28;20083;-67
2021/04/28 01:54:39;;;;;;;7.53;6.70;;;6.70;74.90;;;;;;2079913;28;20032;-68
2021/04/28 01:55:40;;;;;;;9.75;7.15;;;6.70;76.30;;;;;;2087121;28;20032;-67
2021/04/28 01:56:43;;;;;;;8.27;6.32;;;6.70;77.20;;;;;;2086336;28;20094;-67
2021/04/28 01:57:44;;;;;;;7.78;7.07;;;6.60;76.20;;;;;;2080465;28;20029;-67
2021/04/28 01:58:46;;;;;;;7.85;6.32;;;6.60;77.30;;;;;;2080576;28;20037;-67
2021/04/28 01:59:46;;;;;;;6.50;5.90;;;6.60;78.00;;;;;;2080540;28;20029;-67
2021/04/28 02:00:48;;;;;;;9.02;6.50;;;6.60;76.40;;;;;;2081213;28;20114;-67
2021/04/28 02:01:52;;;;;;;7.28;6.13;;;6.60;77.00;;;;;;2081747;28;20029;-68
2021/04/28 02:02:52;;;;;;;8.75;6.82;;;6.60;77.90;;;;;;2081303;28;20052;-67
2021/04/28 02:03:54;;;;;;;7.00;6.35;;;6.60;78.60;;;;;;2081573;28;20097;-68
2021/04/28 02:04:55;;;;;;;7.55;6.68;;;6.50;79.00;;;;;;2085197;28;20143;-68
2021/04/28 02:05:55;;;;;;;8.05;7.25;;;6.50;77.90;;;;;;2090130;28;20033;-68
2021/04/28 02:06:56;;;;;;;12.15;6.55;;;6.50;78.40;;;;;;2090152;28;20025;-67
2021/04/28 02:07:57;;;;;;;8.10;6.88;;;6.50;78.30;;;;;;2090158;28;20022;-67
2021/04/28 02:08:58;;;;;;;8.02;7.32;;;6.50;78.00;;;;;;2090208;28;20040;-67
2021/04/28 02:09:59;;;;;;;8.48;5.90;;;6.50;77.80;;;;;;2089691;28;20107;-67
2021/04/28 02:11:01;;;;;;;8.50;5.80;;;6.50;77.80;;;;;;2090175;28;20377;-67
2021/04/28 02:12:02;;;;;;;9.05;7.18;;;6.50;78.90;;;;;;2090141;28;20361;-67
2021/04/28 02:13:03;;;;;;;7.13;6.30;;;6.40;79.80;;;;;;2089329;28;20476;-67
2021/04/28 02:14:05;;;;;;;6.57;5.75;;;6.40;77.80;;;;;;2090133;28;20392;-67
2021/04/28 02:15:08;;;;;;;7.82;6.40;;;6.40;77.00;;;;;;2090094;28;20119;-67
2021/04/28 02:16:10;;;;;;;8.15;6.13;;;6.40;76.50;;;;;;2089958;28;20103;-67
2021/04/28 02:17:13;;;;;;;8.02;6.18;;;6.40;77.50;;;;;;2090160;28;20025;-67
2021/04/28 02:18:16;;;;;;;6.97;6.35;;;6.40;79.00;;;;;;2085120;28;20014;-67
2021/04/28 02:19:17;;;;;;;7.07;5.95;;;6.40;78.80;;;;;;2082876;28;20105;-67
2021/04/28 02:20:20;;;;;;;9.27;6.80;;;6.30;77.90;;;;;;2084349;28;20021;-67
2021/04/28 02:21:20;;;;;;;7.05;6.13;;;6.30;77.80;;;;;;2081768;28;20025;-67
2021/04/28 02:22:24;;;;;;;7.07;6.38;;;6.30;78.40;;;;;;2081011;28;20025;-67
2021/04/28 02:23:25;;;;;;;6.35;5.75;;;6.30;78.10;;;;;;2081892;28;20018;-68
2021/04/28 02:24:26;;;;;;;7.32;6.57;;;6.30;76.80;;;;;;2081488;28;20096;-68
2021/04/28 02:25:26;;;;;;;7.18;6.47;;;6.30;77.90;;;;;;2081805;28;20022;-67
2021/04/28 02:26:27;;;;;;;7.38;6.20;;;6.20;78.30;;;;;;2081701;28;20439;-67
2021/04/28 02:27:28;;;;;;;7.18;6.15;;;6.20;77.80;;;;;;2081824;28;20092;-67
2021/04/28 02:28:28;;;;;;;9.30;7.05;;;6.20;77.30;;;;;;2081902;28;20060;-67
2021/04/28 02:29:29;;;;;;;7.20;6.50;;;6.20;78.30;;;;;;2081909;28;20125;-67
2021/04/28 02:30:33;;;;;;;7.97;6.47;;;6.20;78.40;;;;;;2081394;28;20022;-68
2021/04/28 02:31:35;;;;;;;7.85;6.97;;;6.20;78.00;;;;;;2081936;28;20105;-67
2021/04/28 02:32:36;;;;;;;9.52;7.10;;;6.20;79.50;;;;;;2080945;28;20049;-67
2021/04/28 02:33:37;;;;;;;7.78;6.85;;;6.20;78.50;;;;;;2081916;28;20025;-67
2021/04/28 02:34:38;;;;;;;8.05;6.10;;;6.20;77.70;;;;;;2081695;28;20032;-67
2021/04/28 02:35:41;;;;;;;10.23;6.97;;;6.20;77.90;;;;;;2081783;28;20037;-67
2021/04/28 02:36:44;;;;;;;10.85;7.57;;;6.20;79.20;;;;;;2081774;28;20044;-67
2021/04/28 02:37:57;;;;;;;7.40;6.45;;;6.20;80.70;;;;;;2081829;28;20026;-67
2021/04/28 02:39:03;;;;;;;8.48;6.40;;;6.10;81.70;;;;;;2081422;28;20069;-67
2021/04/28 02:40:11;;;;;;;8.35;6.82;;;6.10;80.10;;;;;;2081669;28;20052;-68
2021/04/28 02:41:13;;;;;;;8.40;6.80;;;6.10;81.10;;;;;;2081676;28;20045;-67
2021/04/28 02:42:14;;;;;;;11.32;7.13;;;6.10;79.90;;;;;;2079965;28;20096;-67
2021/04/28 02:43:18;;;;;;;8.95;8.05;;;6.10;80.80;;;;;;2081501;28;20534;-68
2021/04/28 02:44:20;;;;;;;8.93;7.50;;;6.10;82.40;;;;;;2081280;28;20014;-67
2021/04/28 02:45:23;;;;;;;9.60;8.00;;;6.10;82.60;;;;;;2081625;28;20017;-67
2021/04/28 02:46:24;;;;;;;8.70;7.90;;;6.10;83.60;;;;;;2081695;28;20017;-68
2021/04/28 02:47:25;;;;;;;7.38;5.90;;;6.00;83.40;;;;;;2088305;28;20028;-67
2021/04/28 02:48:28;;;;;;;7.13;6.22;;;6.00;80.30;;;;;;2089300;28;20029;-67
2021/04/28 02:49:29;;;;;;;8.10;7.25;;;6.00;80.00;;;;;;2089156;28;20029;-67
2021/04/28 02:50:30;;;;;;;8.18;7.25;;;6.00;81.20;;;;;;2089950;28;20100;-67
2021/04/28 02:51:32;;;;;;;11.68;6.75;;;5.90;82.00;;;;;;2089804;28;20039;-67
2021/04/28 02:52:33;;;;;;;8.75;7.82;;;5.90;81.50;;;;;;2089343;28;20029;-68
2021/04/28 02:53:35;;;;;;;12.13;7.90;;;5.90;82.60;;;;;;2089713;28;20542;-67
2021/04/28 02:54:39;;;;;;;11.55;7.53;;;5.90;83.70;;;;;;2090070;28;20031;-67
2021/04/28 02:55:41;;;;;;;9.55;7.65;;;5.90;83.80;;;;;;2089523;28;20068;-67
2021/04/28 02:56:43;;;;;;;8.45;7.65;;;5.90;84.10;;;;;;2086415;28;20032;-67
2021/04/28 02:57:46;;;;;;;8.95;7.45;;;5.90;85.00;;;;;;2081501;28;20087;-67
2021/04/28 02:58:47;;;;;;;7.80;7.10;;;5.80;83.80;;;;;;2081492;28;20121;-67
2021/04/28 02:59:50;;;;;;;10.07;8.40;;;5.80;84.10;;;;;;2081459;28;20052;-67
2021/04/28 03:00:53;;;;;;;7.95;7.22;;;5.80;84.00;;;;;;2081559;28;20037;-67
2021/04/28 03:01:55;;;;;;;9.30;7.38;;;5.80;84.50;;;;;;2087066;28;20024;-67
2021/04/28 03:02:59;;;;;;;8.02;7.32;;;5.80;84.40;;;;;;2088615;28;20025;-67
2021/04/28 03:04:01;;;;;;;10.05;7.72;;;5.80;84.40;;;;;;2088989;28;20032;-67
2021/04/28 03:05:03;;;;;;;6.78;6.20;;;5.80;83.90;;;;;;2088972;28;20021;-67
2021/04/28 03:06:04;;;;;;;7.70;7.00;;;5.70;81.80;;;;;;2087926;28;20108;-67
2021/04/28 03:07:05;;;;;;;8.80;7.55;;;5.80;82.90;;;;;;2088264;28;20036;-67
2021/04/28 03:08:06;;;;;;;9.05;8.00;;;5.70;83.20;;;;;;2088683;28;20463;-67
2021/04/28 03:09:07;;;;;;;9.55;7.80;;;5.70;83.20;;;;;;2089083;28;20950;-67
2021/04/28 03:10:08;;;;;;;8.45;7.25;;;5.70;84.10;;;;;;2088369;28;20380;-67
2021/04/28 03:11:09;;;;;;;9.38;7.07;;;5.70;83.30;;;;;;2087789;28;20036;-67
2021/04/28 03:12:15;;;;;;;8.38;7.38;;;5.70;83.50;;;;;;2087586;28;20025;-67
2021/04/28 03:13:16;;;;;;;7.72;6.97;;;5.70;84.70;;;;;;2088468;28;20390;-67
2021/04/28 03:14:17;;;;;;;9.85;7.85;;;5.70;83.80;;;;;;2088173;28;20029;-67
2021/04/28 03:15:19;;;;;;;8.23;7.15;;;5.60;85.10;;;;;;2088335;28;20021;-67
2021/04/28 03:16:20;;;;;;;7.28;6.53;;;5.60;84.30;;;;;;2079782;28;20113;-67
2021/04/28 03:17:21;;;;;;;9.77;8.35;;;5.60;82.50;;;;;;2080032;28;20025;-67
2021/04/28 03:18:23;;;;;;;9.95;7.15;;;5.60;85.10;;;;;;2080416;28;20034;-67
2021/04/28 03:19:24;;;;;;;7.97;6.18;;;5.60;84.30;;;;;;2079813;28;20029;-67
2021/04/28 03:20:26;;;;;;;7.93;7.13;;;5.60;83.30;;;;;;2079992;28;20055;-67
2021/04/28 03:21:29;;;;;;;7.97;6.50;;;5.60;84.60;;;;;;2080070;28;20029;-67
2021/04/28 03:22:30;;;;;;;8.43;7.63;;;5.50;84.00;;;;;;2079528;28;20137;-67
2021/04/28 03:23:30;;;;;;;8.15;6.57;;;5.50;85.70;;;;;;2080062;28;20026;-68
2021/04/28 03:24:31;;;;;;;9.77;7.70;;;5.60;84.50;;;;;;2079761;28;20021;-67
2021/04/28 03:25:32;;;;;;;8.85;7.50;;;5.50;85.30;;;;;;2080179;28;20041;-67
2021/04/28 03:26:33;;;;;;;8.77;6.68;;;5.50;86.00;;;;;;2079983;28;20120;-67
2021/04/28 03:27:34;;;;;;;9.93;7.70;;;5.50;85.30;;;;;;2079778;28;20424;-67
2021/04/28 03:28:34;;;;;;;8.30;7.03;;;5.50;86.50;;;;;;2079859;28;20112;-67
2021/04/28 03:29:36;;;;;;;11.85;8.25;;;5.50;85.40;;;;;;2080098;28;20079;-67
2021/04/28 03:30:36;;;;;;;7.72;6.95;;;5.50;86.70;;;;;;2081662;28;20047;-67
2021/04/28 03:31:37;;;;;;;8.63;7.82;;;5.50;86.10;;;;;;2088338;28;20025;-67
2021/04/28 03:32:38;;;;;;;9.13;7.68;;;5.50;88.10;;;;;;2081460;28;20044;-67
2021/04/28 03:33:38;;;;;;;9.15;7.72;;;5.40;87.30;;;;;;2079147;28;20060;-67
2021/04/28 03:34:39;;;;;;;8.90;7.32;;;5.40;89.00;;;;;;2079418;28;20104;-67
2021/04/28 03:35:39;;;;;;;8.90;7.78;;;5.40;87.80;;;;;;2082713;28;20033;-67
2021/04/28 03:36:40;;;;;;;10.30;8.65;;;5.40;88.50;;;;;;2088379;28;20035;-67
2021/04/28 03:37:41;;;;;;;6.95;5.80;;;5.40;89.70;;;;;;2088312;28;20108;-67
2021/04/28 03:38:41;;;;;;;7.78;7.00;;;5.40;86.10;;;;;;2079447;28;20021;-67
2021/04/28 03:39:42;;;;;;;6.88;6.18;;;5.40;86.10;;;;;;2080055;28;20091;-67
2021/04/28 03:40:43;;;;;;;16.15;7.38;;;5.40;85.50;;;;;;2084651;28;20033;-67
2021/04/28 03:41:44;;;;;;;9.30;8.30;;;5.40;85.50;;;;;;2080193;28;20451;-67
2021/04/28 03:42:44;;;;;;;9.52;8.23;;;5.30;87.50;;;;;;2079235;28;20104;-67
2021/04/28 03:43:45;;;;;;;8.60;7.80;;;5.30;88.10;;;;;;2079968;28;20508;-67
2021/04/28 03:44:46;;;;;;;7.18;6.32;;;5.30;88.30;;;;;;2079858;28;20028;-67
2021/04/28 03:45:47;;;;;;;9.73;8.70;;;5.30;87.30;;;;;;2079460;28;20029;-67
2021/04/28 03:46:47;;;;;;;7.97;7.25;;;5.30;89.50;;;;;;2074763;28;20045;-67
2021/04/28 03:47:48;;;;;;;8.95;7.40;;;5.30;88.60;;;;;;2071863;28;20030;-67
2021/04/28 03:48:49;;;;;;;8.63;7.07;;;5.30;88.10;;;;;;2079953;28;20113;-67
2021/04/28 03:49:50;;;;;;;10.63;8.00;;;5.20;86.80;;;;;;2079712;28;20496;-67
2021/04/28 03:50:50;;;;;;;11.50;7.60;;;5.30;88.10;;;;;;2079340;28;20025;-67
2021/04/28 03:51:51;;;;;;;10.50;8.15;;;5.20;87.80;;;;;;2079390;28;20025;-67
2021/04/28 03:52:52;;;;;;;9.02;6.85;;;5.20;89.20;;;;;;2079349;28;20108;-67
2021/04/28 03:53:52;;;;;;;7.68;6.55;;;5.20;88.20;;;;;;2079447;28;20037;-67
2021/04/28 03:54:53;;;;;;;7.32;6.63;;;5.20;87.50;;;;;;2080116;28;20465;-67
2021/04/28 03:55:54;;;;;;;8.10;7.03;;;5.20;86.80;;;;;;2087744;28;20032;-67
2021/04/28 03:56:54;;;;;;;12.23;6.75;;;5.20;87.20;;;;;;2083644;28;20068;-67
2021/04/28 03:57:55;;;;;;;6.72;6.05;;;5.10;87.10;;;;;;2079882;28;20393;-67
2021/04/28 03:58:56;;;;;;;9.25;7.63;;;5.20;86.00;;;;;;2080018;28;20380;-67
2021/04/28 03:59:56;;;;;;;10.85;7.20;;;5.20;87.50;;;;;;2082038;28;20029;-67
2021/04/28 04:00:57;;;;;;;8.38;7.47;;;5.20;87.50;;;;;;2088024;28;20021;-67
2021/04/28 04:01:57;;;;;;;11.60;8.27;;;5.20;87.20;;;;;;2087694;28;20096;-67
2021/04/28 04:02:58;;;;;;;9.55;7.25;;;5.20;89.00;;;;;;2086874;28;20047;-67
2021/04/28 04:03:59;;;;;;;8.57;7.50;;;5.10;89.90;;;;;;2086979;28;20099;-67
2021/04/28 04:04:59;;;;;;;10.02;7.45;;;5.10;89.30;;;;;;2083589;28;20071;-67
2021/04/28 04:06:00;;;;;;;7.65;6.95;;;5.10;90.10;;;;;;2079600;28;20026;-67
2021/04/28 04:07:01;;;;;;;9.57;8.65;;;5.10;89.90;;;;;;2079871;28;20025;-67
2021/04/28 04:08:02;;;;;;;10.15;7.95;;;5.10;90.40;;;;;;2079491;28;20093;-67
2021/04/28 04:09:04;;;;;;;10.55;6.95;;;5.10;90.60;;;;;;2080192;28;20052;-67
2021/04/28 04:10:05;;;;;;;8.25;7.45;;;5.10;89.40;;;;;;2079700;28;20033;-67
2021/04/28 04:11:06;;;;;;;11.02;7.88;;;5.10;89.60;;;;;;2079860;28;20022;-67
2021/04/28 04:12:07;;;;;;;9.90;8.68;;;5.10;89.70;;;;;;2079133;28;20033;-67
2021/04/28 04:13:07;;;;;;;7.43;6.72;;;5.10;90.30;;;;;;2079175;28;20080;-67
2021/04/28 04:14:08;;;;;;;8.05;7.13;;;5.10;89.10;;;;;;2079604;28;20064;-68
2021/04/28 04:15:10;;;;;;;9.25;7.40;;;5.10;88.40;;;;;;2079731;28;20105;-67
2021/04/28 04:16:10;;;;;;;8.57;7.15;;;5.10;88.60;;;;;;2079130;28;20481;-67
2021/04/28 04:17:11;;;;;;;8.82;7.97;;;5.00;88.10;;;;;;2077488;28;20483;-67
2021/04/28 04:18:12;;;;;;;8.55;7.70;;;5.00;89.60;;;;;;2079821;28;20123;-67
2021/04/28 04:19:13;;;;;;;9.63;8.15;;;5.00;89.40;;;;;;2079584;28;20021;-67
2021/04/28 04:20:13;;;;;;;11.13;8.55;;;5.00;88.80;;;;;;2073245;28;20021;-67
2021/04/28 04:21:14;;;;;;;12.25;8.35;;;5.00;90.00;;;;;;2076217;28;20441;-67
2021/04/28 04:22:15;;;;;;;10.38;9.02;;;5.00;89.80;;;;;;2078330;28;20057;-67
2021/04/28 04:23:15;;;;;;;9.50;8.50;;;5.00;90.70;;;;;;2077507;28;20025;-67
2021/04/28 04:24:16;;;;;;;10.93;9.05;;;5.00;90.60;;;;;;2079694;28;20013;-67
2021/04/28 04:25:17;;;;;;;9.05;8.10;;;5.00;91.20;;;;;;2079309;28;20036;-67
2021/04/28 04:26:17;;;;;;;9.75;8.25;;;5.00;91.40;;;;;;2079232;28;20456;-67
2021/04/28 04:27:18;;;;;;;10.55;9.43;;;5.00;91.30;;;;;;2079297;28;20063;-67
2021/04/28 04:28:18;;;;;;;10.38;9.38;;;4.90;91.20;;;;;;2079111;28;20450;-67
2021/04/28 04:29:19;;;;;;;11.57;8.50;;;5.00;91.60;;;;;;2079050;28;20017;-67
2021/04/28 04:30:20;;;;;;;11.73;9.05;;;4.90;91.70;;;;;;2078380;28;20396;-67
2021/04/28 04:31:21;;;;;;;10.52;8.23;;;4.90;91.40;;;;;;2079675;28;20128;-67
2021/04/28 04:32:21;;;;;;;8.93;8.07;;;4.90;90.70;;;;;;2075971;28;20125;-67
2021/04/28 04:33:22;;;;;;;9.93;8.93;;;5.00;90.40;;;;;;2071552;28;20063;-67
2021/04/28 04:34:22;;;;;;;9.15;8.25;;;5.00;91.10;;;;;;2072807;28;20034;-67
2021/04/28 04:35:24;;;;;;;11.82;8.07;;;4.90;90.40;;;;;;2077715;28;20453;-67
2021/04/28 04:36:25;;;;;;;9.55;8.52;;;4.90;90.30;;;;;;2078849;28;20025;-67
2021/04/28 04:37:25;;;;;;;9.45;8.43;;;4.90;90.30;;;;;;2076487;28;20064;-67
2021/04/28 04:38:26;;;;;;;13.15;10.20;;;4.90;90.80;;;;;;2072638;28;20106;-67
2021/04/28 04:39:26;;;;;;;10.48;7.80;;;4.90;91.30;;;;;;2074090;28;20221;-67
2021/04/28 04:40:27;;;;;;;9.95;8.95;;;4.90;91.20;;;;;;2071758;28;20354;-67
2021/04/28 04:41:27;;;;;;;10.68;8.38;;;4.90;91.50;;;;;;2071733;28;20044;-67
2021/04/28 04:42:28;;;;;;;13.48;9.35;;;4.90;91.40;;;;;;2073726;28;20065;-67
2021/04/28 04:43:29;;;;;;;9.77;8.88;;;4.90;92.10;;;;;;2078901;28;20460;-67
2021/04/28 04:44:29;;;;;;;14.00;8.80;;;4.90;92.20;;;;;;2078423;28;20064;-67
2021/04/28 04:45:34;;;;;;;11.98;9.57;;;4.90;92.20;;;;;;2077046;28;20485;-67
2021/04/28 04:46:34;;;;;;;11.35;8.85;;;4.90;92.40;;;;;;2073452;28;20014;-67
2021/04/28 04:47:35;;;;;;;9.80;8.85;;;4.90;92.70;;;;;;2075279;28;20434;-67
2021/04/28 04:48:36;;;;;;;11.60;8.98;;;4.90;92.40;;;;;;2073680;28;20181;-67
2021/04/28 04:49:39;;;;;;;10.90;8.80;;;4.90;92.50;;;;;;2071254;28;20053;-67
2021/04/28 04:50:39;;;;;;;17.27;9.70;;;5.00;92.90;;;;;;2075001;28;20038;-67
2021/04/28 04:51:40;;;;;;;11.27;10.13;;;4.90;92.80;;;;;;2080978;28;20036;-67
2021/04/28 04:52:42;;;;;;;10.73;9.55;;;5.00;92.70;;;;;;2079510;28;20034;-67
2021/04/28 04:53:42;;;;;;;12.00;10.68;;;5.00;93.00;;;;;;2078416;28;20043;-67
2021/04/28 04:54:43;;;;;;;16.08;10.55;;;5.00;93.60;;;;;;2079613;28;20036;-67
2021/04/28 04:55:44;;;;;;;10.75;9.18;;;5.00;93.70;;;;;;2079380;28;20653;-68
2021/04/28 04:56:44;;;;;;;10.68;9.57;;;5.00;93.60;;;;;;2078990;28;20029;-67
2021/04/28 04:57:45;;;;;;;13.35;10.32;;;5.00;93.60;;;;;;2079828;28;20350;-67
2021/04/28 04:58:45;;;;;;;14.15;11.10;;;5.00;94.20;;;;;;2079566;28;20029;-67
2021/04/28 04:59:46;;;;;;;11.38;10.18;;;5.00;94.50;;;;;;2078558;28;20079;-67
2021/04/28 05:00:47;;;;;;;13.95;10.02;;;5.00;94.50;;;;;;2078735;28;20034;-67
2021/04/28 05:01:47;;;;;;;12.63;10.75;;;5.00;94.30;;;;;;2074093;28;20022;-68
2021/04/28 05:02:48;;;;;;;11.85;10.68;;;5.00;94.60;;;;;;2079004;28;20041;-67
2021/04/28 05:03:48;;;;;;;14.45;10.57;;;5.00;95.00;;;;;;2079664;28;20038;-67
2021/04/28 05:04:49;;;;;;;12.55;10.85;;;5.00;95.10;;;;;;2078529;28;20437;-67
2021/04/28 05:05:49;;;;;;;11.40;10.20;;;5.00;95.10;;;;;;2079769;28;20032;-67
2021/04/28 05:06:52;;;;;;;11.27;10.15;;;5.00;94.90;;;;;;2085245;28;20021;-67
2021/04/28 05:07:53;;;;;;;11.50;10.30;;;5.00;94.70;;;;;;2073911;28;20083;-67
2021/04/28 05:08:53;;;;;;;14.15;10.40;;;5.00;95.10;;;;;;2074997;28;20025;-67
2021/04/28 05:09:54;;;;;;;12.05;10.38;;;5.10;95.30;;;;;;2075701;28;20046;-67
2021/04/28 05:10:55;;;;;;;16.73;10.90;;;5.10;95.50;;;;;;2075727;28;20057;-67
2021/04/28 05:11:55;;;;;;;11.80;10.57;;;5.10;95.70;;;;;;2077255;28;20029;-67
2021/04/28 05:12:56;;;;;;;14.23;11.65;;;5.10;95.60;;;;;;2077492;28;20025;-67
2021/04/28 05:13:56;;;;;;;12.55;11.32;;;5.10;96.10;;;;;;2075929;28;20513;-67
2021/04/28 05:14:57;;;;;;;12.75;10.20;;;5.10;96.70;;;;;;2085341;28;20048;-67
2021/04/28 05:15:58;;;;;;;13.35;11.30;;;5.10;97.30;;;;;;2081630;28;20060;-67
2021/04/28 05:16:58;;;;;;;12.35;11.15;;;5.20;98.40;;;;;;2085253;28;20109;-68
2021/04/28 05:17:59;;;;;;;13.73;12.25;;;5.20;98.70;;;;;;2074367;28;20485;-67
2021/04/28 05:19:00;;;;;;;14.63;12.10;;;5.30;99.30;;;;;;2079454;28;20026;-67
2021/04/28 05:20:01;;;;;;;12.55;8.73;;;5.40;99.00;;;;;;2080439;28;20027;-68
2021/04/28 05:21:01;;;;;;;13.00;11.68;;;5.40;98.60;;;;;;2080695;28;20536;-67
2021/04/28 05:22:02;;;;;;;11.23;10.07;;;5.50;99.40;;;;;;2080937;28;20045;-67